sensor_id;sensor_type;location;lat;lon;timestamp;temperature;humidity
13610;DHT22;6876;50.788;4.940;2023-03-11T00:00:24;1.70;99.90
13610;DHT22;6876;50.788;4.940;2023-03-11T00:03:13;1.70;99.90
13610;DHT22;6876;50.788;4.940;2023-03-11T00:06:01;1.70;99.90
13610;DHT22;6876;50.788;4.940;2023-03-11T00:08:49;1.80;99.90
13610;DHT22;6876;50.788;4.940;2023-03-11T00:11:37;1.80;99.90
13610;DHT22;6876;50.788;4.940;2023-03-11T00:14:24;1.90;99.90
13610;DHT22;6876;50.788;4.940;2023-03-11T00:17:13;1.80;99.90
13610;DHT22;6876;50.788;4.940;2023-03-11T00:20:00;1.70;99.90
13610;DHT22;6876;50.788;4.940;2023-03-11T00:22:49;1.60;99.90
13610;DHT22;6876;50.788;4.940;2023-03-11T00:25:37;1.50;99.90
13610;DHT22;6876;50.788;4.940;2023-03-11T00:28:25;1.50;99.90
13610;DHT22;6876;50.788;4.940;2023-03-11T00:31:12;1.50;99.90
13610;DHT22;6876;50.788;4.940;2023-03-11T00:34:01;1.40;99.90
13610;DHT22;6876;50.788;4.940;2023-03-11T00:36:48;1.40;99.90
13610;DHT22;6876;50.788;4.940;2023-03-11T00:39:35;1.30;99.90
13610;DHT22;6876;50.788;4.940;2023-03-11T00:42:23;1.20;99.90
13610;DHT22;6876;50.788;4.940;2023-03-11T00:45:11;1.30;99.90
13610;DHT22;6876;50.788;4.940;2023-03-11T00:47:58;1.30;99.90
13610;DHT22;6876;50.788;4.940;2023-03-11T00:50:47;1.20;99.90
13610;DHT22;6876;50.788;4.940;2023-03-11T00:53:35;1.20;99.90
13610;DHT22;6876;50.788;4.940;2023-03-11T00:56:22;1.20;99.90
13610;DHT22;6876;50.788;4.940;2023-03-11T00:59:10;1.20;99.90
13610;DHT22;6876;50.788;4.940;2023-03-11T01:01:57;1.30;99.90
13610;DHT22;6876;50.788;4.940;2023-03-11T01:04:45;1.20;99.90
13610;DHT22;6876;50.788;4.940;2023-03-11T01:07:33;1.10;99.90
13610;DHT22;6876;50.788;4.940;2023-03-11T01:10:21;1.10;99.90
13610;DHT22;6876;50.788;4.940;2023-03-11T01:13:08;1.20;99.90
13610;DHT22;6876;50.788;4.940;2023-03-11T01:15:56;1.20;99.90
13610;DHT22;6876;50.788;4.940;2023-03-11T01:18:43;1.10;99.90
13610;DHT22;6876;50.788;4.940;2023-03-11T01:21:30;1.00;99.90
13610;DHT22;6876;50.788;4.940;2023-03-11T01:24:19;1.00;99.90
13610;DHT22;6876;50.788;4.940;2023-03-11T01:27:06;1.00;99.90
13610;DHT22;6876;50.788;4.940;2023-03-11T01:29:54;1.00;99.90
13610;DHT22;6876;50.788;4.940;2023-03-11T01:32:41;1.10;99.90
13610;DHT22;6876;50.788;4.940;2023-03-11T01:35:29;1.00;99.90
13610;DHT22;6876;50.788;4.940;2023-03-11T01:38:17;1.00;99.90
13610;DHT22;6876;50.788;4.940;2023-03-11T01:41:07;0.90;99.90
13610;DHT22;6876;50.788;4.940;2023-03-11T01:43:57;0.90;99.90
13610;DHT22;6876;50.788;4.940;2023-03-11T01:50:11;0.90;99.90
13610;DHT22;6876;50.788;4.940;2023-03-11T01:52:59;0.90;99.90
13610;DHT22;6876;50.788;4.940;2023-03-11T01:55:47;0.80;99.90
13610;DHT22;6876;50.788;4.940;2023-03-11T01:58:38;0.70;99.90
13610;DHT22;6876;50.788;4.940;2023-03-11T02:01:29;0.70;99.90
13610;DHT22;6876;50.788;4.940;2023-03-11T02:04:17;0.70;99.90
13610;DHT22;6876;50.788;4.940;2023-03-11T02:07:07;0.70;99.90
13610;DHT22;6876;50.788;4.940;2023-03-11T02:09:55;0.80;99.90
13610;DHT22;6876;50.788;4.940;2023-03-11T02:12:43;0.90;99.90
13610;DHT22;6876;50.788;4.940;2023-03-11T02:15:32;0.90;99.90
13610;DHT22;6876;50.788;4.940;2023-03-11T02:18:20;0.90;99.90
13610;DHT22;6876;50.788;4.940;2023-03-11T02:21:16;0.90;99.90
13610;DHT22;6876;50.788;4.940;2023-03-11T02:24:10;1.00;99.90
13610;DHT22;6876;50.788;4.940;2023-03-11T02:27:02;1.00;99.90
13610;DHT22;6876;50.788;4.940;2023-03-11T02:29:51;1.10;99.90
13610;DHT22;6876;50.788;4.940;2023-03-11T02:32:43;1.10;99.90
13610;DHT22;6876;50.788;4.940;2023-03-11T02:35:33;1.10;99.90
13610;DHT22;6876;50.788;4.940;2023-03-11T02:38:20;1.10;99.90
13610;DHT22;6876;50.788;4.940;2023-03-11T02:41:08;1.10;99.90
13610;DHT22;6876;50.788;4.940;2023-03-11T02:43:57;1.10;99.90
13610;DHT22;6876;50.788;4.940;2023-03-11T02:46:45;1.10;99.90
13610;DHT22;6876;50.788;4.940;2023-03-11T02:49:33;1.10;99.90
13610;DHT22;6876;50.788;4.940;2023-03-11T02:52:23;1.10;99.90
13610;DHT22;6876;50.788;4.940;2023-03-11T02:55:11;1.10;99.90
13610;DHT22;6876;50.788;4.940;2023-03-11T02:58:00;1.30;99.90
13610;DHT22;6876;50.788;4.940;2023-03-11T03:00:49;1.30;99.90
13610;DHT22;6876;50.788;4.940;2023-03-11T03:03:37;1.30;99.90
13610;DHT22;6876;50.788;4.940;2023-03-11T03:06:29;1.30;99.90
13610;DHT22;6876;50.788;4.940;2023-03-11T03:09:16;1.20;99.90
13610;DHT22;6876;50.788;4.940;2023-03-11T03:12:04;1.20;99.90
13610;DHT22;6876;50.788;4.940;2023-03-11T03:14:52;1.30;99.90
13610;DHT22;6876;50.788;4.940;2023-03-11T03:17:40;1.30;99.90
13610;DHT22;6876;50.788;4.940;2023-03-11T03:20:28;1.30;99.90
13610;DHT22;6876;50.788;4.940;2023-03-11T03:23:15;1.20;99.90
13610;DHT22;6876;50.788;4.940;2023-03-11T03:26:03;1.20;99.90
13610;DHT22;6876;50.788;4.940;2023-03-11T03:28:50;1.10;99.90
13610;DHT22;6876;50.788;4.940;2023-03-11T03:31:38;1.00;99.90
13610;DHT22;6876;50.788;4.940;2023-03-11T03:34:26;1.00;99.90
13610;DHT22;6876;50.788;4.940;2023-03-11T03:37:14;0.90;99.90
13610;DHT22;6876;50.788;4.940;2023-03-11T03:40:02;0.80;99.90
13610;DHT22;6876;50.788;4.940;2023-03-11T03:42:53;0.90;99.90
13610;DHT22;6876;50.788;4.940;2023-03-11T03:45:40;0.80;99.90
13610;DHT22;6876;50.788;4.940;2023-03-11T03:48:27;0.80;99.90
13610;DHT22;6876;50.788;4.940;2023-03-11T03:51:16;0.80;99.90
13610;DHT22;6876;50.788;4.940;2023-03-11T03:54:03;0.80;99.90
13610;DHT22;6876;50.788;4.940;2023-03-11T03:56:51;0.70;99.90
13610;DHT22;6876;50.788;4.940;2023-03-11T03:59:38;0.80;99.90
13610;DHT22;6876;50.788;4.940;2023-03-11T04:02:25;0.80;99.90
13610;DHT22;6876;50.788;4.940;2023-03-11T04:05:13;0.80;99.90
13610;DHT22;6876;50.788;4.940;2023-03-11T04:08:01;0.80;99.90
13610;DHT22;6876;50.788;4.940;2023-03-11T04:10:55;0.80;99.90
13610;DHT22;6876;50.788;4.940;2023-03-11T04:13:43;0.70;99.90
13610;DHT22;6876;50.788;4.940;2023-03-11T04:16:31;0.70;99.90
13610;DHT22;6876;50.788;4.940;2023-03-11T04:19:18;0.60;99.90
13610;DHT22;6876;50.788;4.940;2023-03-11T04:22:06;0.70;99.90
13610;DHT22;6876;50.788;4.940;2023-03-11T04:24:54;0.70;99.90
13610;DHT22;6876;50.788;4.940;2023-03-11T04:27:42;0.70;99.90
13610;DHT22;6876;50.788;4.940;2023-03-11T04:30:30;0.70;99.90
13610;DHT22;6876;50.788;4.940;2023-03-11T04:33:18;0.70;99.90
13610;DHT22;6876;50.788;4.940;2023-03-11T04:36:06;0.70;99.90
13610;DHT22;6876;50.788;4.940;2023-03-11T04:38:55;0.70;99.90
13610;DHT22;6876;50.788;4.940;2023-03-11T04:41:45;0.70;99.90
13610;DHT22;6876;50.788;4.940;2023-03-11T04:44:33;0.50;99.90
13610;DHT22;6876;50.788;4.940;2023-03-11T04:47:21;0.50;99.90
13610;DHT22;6876;50.788;4.940;2023-03-11T04:50:09;0.40;99.90
13610;DHT22;6876;50.788;4.940;2023-03-11T04:52:57;0.40;99.90
13610;DHT22;6876;50.788;4.940;2023-03-11T04:55:45;0.50;99.90
13610;DHT22;6876;50.788;4.940;2023-03-11T04:58:34;0.40;99.90
13610;DHT22;6876;50.788;4.940;2023-03-11T05:01:21;0.30;99.90
13610;DHT22;6876;50.788;4.940;2023-03-11T07:02:12;0.20;99.90
13610;DHT22;6876;50.788;4.940;2023-03-11T07:05:00;4.50;99.90
13610;DHT22;6876;50.788;4.940;2023-03-11T07:07:47;4.70;88.10
13610;DHT22;6876;50.788;4.940;2023-03-11T07:10:34;5.20;1.00
13610;DHT22;6876;50.788;4.940;2023-03-11T07:13:22;5.60;1.00
13610;DHT22;6876;50.788;4.940;2023-03-11T07:16:11;6.30;99.90
13610;DHT22;6876;50.788;4.940;2023-03-11T07:19:01;7.10;1.00
13610;DHT22;6876;50.788;4.940;2023-03-11T07:21:48;8.00;1.00
13610;DHT22;6876;50.788;4.940;2023-03-11T07:24:36;8.70;99.90
13610;DHT22;6876;50.788;4.940;2023-03-11T07:27:23;8.90;99.90
13610;DHT22;6876;50.788;4.940;2023-03-11T07:30:11;8.90;1.00
13610;DHT22;6876;50.788;4.940;2023-03-11T07:32:59;8.90;99.90
13610;DHT22;6876;50.788;4.940;2023-03-11T07:35:48;8.90;1.00
13610;DHT22;6876;50.788;4.940;2023-03-11T07:38:35;8.20;99.90
13610;DHT22;6876;50.788;4.940;2023-03-11T07:41:23;7.20;1.00
13610;DHT22;6876;50.788;4.940;2023-03-11T07:44:12;6.20;1.00
13610;DHT22;6876;50.788;4.940;2023-03-11T07:47:01;5.50;1.00
13610;DHT22;6876;50.788;4.940;2023-03-11T07:49:49;5.50;19.40
13610;DHT22;6876;50.788;4.940;2023-03-11T07:52:39;6.30;1.00
13610;DHT22;6876;50.788;4.940;2023-03-11T07:55:26;5.90;1.00
13610;DHT22;6876;50.788;4.940;2023-03-11T07:58:13;5.70;99.90
13610;DHT22;6876;50.788;4.940;2023-03-11T08:01:03;7.10;99.90
13610;DHT22;6876;50.788;4.940;2023-03-11T08:03:51;8.60;1.00
13610;DHT22;6876;50.788;4.940;2023-03-11T08:06:43;9.80;1.00
13610;DHT22;6876;50.788;4.940;2023-03-11T08:09:33;10.80;1.00
13610;DHT22;6876;50.788;4.940;2023-03-11T08:12:20;11.00;99.90
13610;DHT22;6876;50.788;4.940;2023-03-11T08:15:09;11.90;1.00
13610;DHT22;6876;50.788;4.940;2023-03-11T08:17:56;13.20;1.00
13610;DHT22;6876;50.788;4.940;2023-03-11T08:20:43;13.90;32.80
13610;DHT22;6876;50.788;4.940;2023-03-11T08:23:31;14.10;44.30
13610;DHT22;6876;50.788;4.940;2023-03-11T08:26:20;14.60;39.10
13610;DHT22;6876;50.788;4.940;2023-03-11T08:29:07;14.30;38.30
13610;DHT22;6876;50.788;4.940;2023-03-11T08:31:55;14.90;47.00
13610;DHT22;6876;50.788;4.940;2023-03-11T08:34:42;15.30;47.30
13610;DHT22;6876;50.788;4.940;2023-03-11T08:37:29;16.00;47.70
13610;DHT22;6876;50.788;4.940;2023-03-11T08:40:17;15.50;47.40
13610;DHT22;6876;50.788;4.940;2023-03-11T08:43:06;15.30;56.60
13610;DHT22;6876;50.788;4.940;2023-03-11T08:45:53;15.20;64.80
13610;DHT22;6876;50.788;4.940;2023-03-11T08:48:41;16.00;67.80
13610;DHT22;6876;50.788;4.940;2023-03-11T08:51:32;16.10;52.10
13610;DHT22;6876;50.788;4.940;2023-03-11T08:54:20;16.50;47.90
13610;DHT22;6876;50.788;4.940;2023-03-11T08:57:07;17.30;60.10
13610;DHT22;6876;50.788;4.940;2023-03-11T08:59:56;17.30;62.10
13610;DHT22;6876;50.788;4.940;2023-03-11T09:02:44;17.60;62.80
13610;DHT22;6876;50.788;4.940;2023-03-11T09:05:32;18.20;66.50
13610;DHT22;6876;50.788;4.940;2023-03-11T09:08:19;18.50;63.10
13610;DHT22;6876;50.788;4.940;2023-03-11T09:11:07;19.00;62.90
13610;DHT22;6876;50.788;4.940;2023-03-11T09:13:54;19.20;63.30
13610;DHT22;6876;50.788;4.940;2023-03-11T09:16:43;19.30;67.70
13610;DHT22;6876;50.788;4.940;2023-03-11T09:19:30;19.60;63.50
13610;DHT22;6876;50.788;4.940;2023-03-11T09:22:17;19.40;60.50
13610;DHT22;6876;50.788;4.940;2023-03-11T09:25:06;19.50;72.80
13610;DHT22;6876;50.788;4.940;2023-03-11T09:27:54;20.00;69.00
13610;DHT22;6876;50.788;4.940;2023-03-11T09:30:41;21.00;61.40
13610;DHT22;6876;50.788;4.940;2023-03-11T09:33:30;21.40;57.70
13610;DHT22;6876;50.788;4.940;2023-03-11T09:36:19;22.20;56.70
13610;DHT22;6876;50.788;4.940;2023-03-11T09:39:07;22.10;53.40
13610;DHT22;6876;50.788;4.940;2023-03-11T09:41:56;21.60;51.00
13610;DHT22;6876;50.788;4.940;2023-03-11T09:44:45;21.90;54.10
13610;DHT22;6876;50.788;4.940;2023-03-11T09:47:43;21.90;45.70
13610;DHT22;6876;50.788;4.940;2023-03-11T09:50:34;21.40;99.90
13610;DHT22;6876;50.788;4.940;2023-03-11T09:53:30;21.50;99.90
13610;DHT22;6876;50.788;4.940;2023-03-11T09:56:22;21.80;99.90
13610;DHT22;6876;50.788;4.940;2023-03-11T09:59:15;22.60;99.90
13610;DHT22;6876;50.788;4.940;2023-03-11T10:02:05;22.30;99.90
13610;DHT22;6876;50.788;4.940;2023-03-11T10:04:56;22.80;99.90
13610;DHT22;6876;50.788;4.940;2023-03-11T10:07:50;22.50;99.90
13610;DHT22;6876;50.788;4.940;2023-03-11T10:10:43;22.80;99.90
13610;DHT22;6876;50.788;4.940;2023-03-11T10:13:35;21.50;99.90
13610;DHT22;6876;50.788;4.940;2023-03-11T10:16:29;20.50;99.90
13610;DHT22;6876;50.788;4.940;2023-03-11T10:19:28;21.30;99.90
13610;DHT22;6876;50.788;4.940;2023-03-11T10:22:25;21.20;99.90
13610;DHT22;6876;50.788;4.940;2023-03-11T10:25:16;19.90;99.90
13610;DHT22;6876;50.788;4.940;2023-03-11T10:28:09;17.50;99.90
13610;DHT22;6876;50.788;4.940;2023-03-11T10:31:03;15.30;99.90
13610;DHT22;6876;50.788;4.940;2023-03-11T10:33:55;15.50;99.90
13610;DHT22;6876;50.788;4.940;2023-03-11T10:36:50;15.10;99.90
13610;DHT22;6876;50.788;4.940;2023-03-11T10:39:40;14.80;99.90
13610;DHT22;6876;50.788;4.940;2023-03-11T10:42:28;15.40;99.90
13610;DHT22;6876;50.788;4.940;2023-03-11T10:45:16;15.70;99.90
13610;DHT22;6876;50.788;4.940;2023-03-11T10:48:09;15.40;99.90
13610;DHT22;6876;50.788;4.940;2023-03-11T10:51:00;15.90;99.90
13610;DHT22;6876;50.788;4.940;2023-03-11T10:53:50;15.40;99.90
13610;DHT22;6876;50.788;4.940;2023-03-11T10:56:39;14.40;99.90
13610;DHT22;6876;50.788;4.940;2023-03-11T10:59:30;14.10;99.90
13610;DHT22;6876;50.788;4.940;2023-03-11T11:02:24;13.60;99.90
13610;DHT22;6876;50.788;4.940;2023-03-11T11:05:27;13.30;99.90
13610;DHT22;6876;50.788;4.940;2023-03-11T11:08:16;12.70;99.90
13610;DHT22;6876;50.788;4.940;2023-03-11T11:11:19;12.30;99.90
13610;DHT22;6876;50.788;4.940;2023-03-11T11:14:07;11.20;99.90
13610;DHT22;6876;50.788;4.940;2023-03-11T11:16:56;11.10;99.90
13610;DHT22;6876;50.788;4.940;2023-03-11T11:19:44;11.10;99.90
13610;DHT22;6876;50.788;4.940;2023-03-11T11:22:32;11.20;99.90
13610;DHT22;6876;50.788;4.940;2023-03-11T11:25:28;11.30;99.90
13610;DHT22;6876;50.788;4.940;2023-03-11T11:28:18;11.40;99.90
13610;DHT22;6876;50.788;4.940;2023-03-11T11:31:19;11.30;99.90
13610;DHT22;6876;50.788;4.940;2023-03-11T11:34:27;11.30;99.90
13610;DHT22;6876;50.788;4.940;2023-03-11T11:37:15;11.10;99.90
13610;DHT22;6876;50.788;4.940;2023-03-11T11:40:05;10.30;99.90
13610;DHT22;6876;50.788;4.940;2023-03-11T11:42:58;9.90;99.90
13610;DHT22;6876;50.788;4.940;2023-03-11T11:45:51;10.30;99.90
13610;DHT22;6876;50.788;4.940;2023-03-11T11:48:46;10.80;99.90
13610;DHT22;6876;50.788;4.940;2023-03-11T11:51:38;10.90;99.90
13610;DHT22;6876;50.788;4.940;2023-03-11T11:54:29;11.10;99.90
13610;DHT22;6876;50.788;4.940;2023-03-11T11:57:21;11.00;99.90
13610;DHT22;6876;50.788;4.940;2023-03-11T12:00:16;10.70;99.90
13610;DHT22;6876;50.788;4.940;2023-03-11T12:03:32;10.20;99.90
13610;DHT22;6876;50.788;4.940;2023-03-11T12:06:29;10.20;99.90
13610;DHT22;6876;50.788;4.940;2023-03-11T12:09:25;10.40;99.90
13610;DHT22;6876;50.788;4.940;2023-03-11T12:12:22;10.90;99.90
13610;DHT22;6876;50.788;4.940;2023-03-11T12:15:17;10.80;99.90
13610;DHT22;6876;50.788;4.940;2023-03-11T12:18:11;10.60;99.90
13610;DHT22;6876;50.788;4.940;2023-03-11T12:21:11;10.30;99.90
13610;DHT22;6876;50.788;4.940;2023-03-11T12:24:15;10.30;99.90
13610;DHT22;6876;50.788;4.940;2023-03-11T12:27:14;10.50;99.90
13610;DHT22;6876;50.788;4.940;2023-03-11T12:30:04;10.40;99.90
13610;DHT22;6876;50.788;4.940;2023-03-11T12:32:56;10.50;99.90
13610;DHT22;6876;50.788;4.940;2023-03-11T12:35:49;10.80;99.90
13610;DHT22;6876;50.788;4.940;2023-03-11T12:38:39;10.90;99.90
13610;DHT22;6876;50.788;4.940;2023-03-11T12:41:35;10.50;99.90
13610;DHT22;6876;50.788;4.940;2023-03-11T12:44:27;9.80;99.90
13610;DHT22;6876;50.788;4.940;2023-03-11T12:47:25;9.90;99.90
13610;DHT22;6876;50.788;4.940;2023-03-11T12:50:36;10.20;99.90
13610;DHT22;6876;50.788;4.940;2023-03-11T12:53:41;9.90;99.90
13610;DHT22;6876;50.788;4.940;2023-03-11T12:56:32;9.70;99.90
13610;DHT22;6876;50.788;4.940;2023-03-11T12:59:41;9.60;99.90
13610;DHT22;6876;50.788;4.940;2023-03-11T13:03:13;9.60;99.90
13610;DHT22;6876;50.788;4.940;2023-03-11T13:06:14;9.70;99.90
13610;DHT22;6876;50.788;4.940;2023-03-11T13:09:12;9.70;99.90
13610;DHT22;6876;50.788;4.940;2023-03-11T13:12:00;9.70;99.90
13610;DHT22;6876;50.788;4.940;2023-03-11T13:18:17;9.30;99.90
13610;DHT22;6876;50.788;4.940;2023-03-11T13:21:37;9.10;99.90
13610;DHT22;6876;50.788;4.940;2023-03-11T13:24:48;9.30;99.90
13610;DHT22;6876;50.788;4.940;2023-03-11T13:27:41;9.30;99.90
13610;DHT22;6876;50.788;4.940;2023-03-11T13:30:34;9.30;99.90
13610;DHT22;6876;50.788;4.940;2023-03-11T13:33:35;9.10;99.90
13610;DHT22;6876;50.788;4.940;2023-03-11T13:36:48;9.00;99.90
13610;DHT22;6876;50.788;4.940;2023-03-11T13:39:44;9.00;99.90
13610;DHT22;6876;50.788;4.940;2023-03-11T13:42:42;8.90;99.90
13610;DHT22;6876;50.788;4.940;2023-03-11T13:45:37;9.00;1.00
13610;DHT22;6876;50.788;4.940;2023-03-11T13:48:29;8.90;1.00
13610;DHT22;6876;50.788;4.940;2023-03-11T13:51:22;8.60;1.00
13610;DHT22;6876;50.788;4.940;2023-03-11T13:54:25;8.30;1.00
13610;DHT22;6876;50.788;4.940;2023-03-11T13:57:24;8.40;1.00
13610;DHT22;6876;50.788;4.940;2023-03-11T14:00:16;8.30;1.00
13610;DHT22;6876;50.788;4.940;2023-03-11T14:03:11;8.40;1.00
13610;DHT22;6876;50.788;4.940;2023-03-11T14:06:04;8.40;1.00
13610;DHT22;6876;50.788;4.940;2023-03-11T14:08:52;8.40;1.00
13610;DHT22;6876;50.788;4.940;2023-03-11T14:11:41;8.40;1.00
13610;DHT22;6876;50.788;4.940;2023-03-11T14:14:42;8.50;1.00
13610;DHT22;6876;50.788;4.940;2023-03-11T14:17:32;8.40;1.00
13610;DHT22;6876;50.788;4.940;2023-03-11T14:20:22;8.40;1.00
13610;DHT22;6876;50.788;4.940;2023-03-11T14:23:17;8.50;1.00
13610;DHT22;6876;50.788;4.940;2023-03-11T14:26:07;8.40;1.00
13610;DHT22;6876;50.788;4.940;2023-03-11T14:28:57;8.10;1.00
13610;DHT22;6876;50.788;4.940;2023-03-11T14:31:46;7.90;1.00
13610;DHT22;6876;50.788;4.940;2023-03-11T14:34:39;7.70;1.00
13610;DHT22;6876;50.788;4.940;2023-03-11T14:37:32;7.90;1.00
13610;DHT22;6876;50.788;4.940;2023-03-11T14:40:29;8.20;1.00
13610;DHT22;6876;50.788;4.940;2023-03-11T14:43:18;8.20;1.00
13610;DHT22;6876;50.788;4.940;2023-03-11T14:46:06;8.10;1.00
13610;DHT22;6876;50.788;4.940;2023-03-11T14:48:56;8.00;1.00
13610;DHT22;6876;50.788;4.940;2023-03-11T14:51:44;7.90;1.00
13610;DHT22;6876;50.788;4.940;2023-03-11T14:54:36;7.80;1.00
13610;DHT22;6876;50.788;4.940;2023-03-11T14:57:28;7.70;1.00
13610;DHT22;6876;50.788;4.940;2023-03-11T15:00:20;8.00;1.00
13610;DHT22;6876;50.788;4.940;2023-03-11T15:03:16;7.90;1.00
13610;DHT22;6876;50.788;4.940;2023-03-11T15:06:08;7.90;1.00
13610;DHT22;6876;50.788;4.940;2023-03-11T15:08:58;8.00;1.00
13610;DHT22;6876;50.788;4.940;2023-03-11T15:11:49;7.90;1.00
13610;DHT22;6876;50.788;4.940;2023-03-11T15:14:48;8.00;1.00
13610;DHT22;6876;50.788;4.940;2023-03-11T15:17:36;8.00;1.00
13610;DHT22;6876;50.788;4.940;2023-03-11T15:20:25;8.10;1.00
13610;DHT22;6876;50.788;4.940;2023-03-11T15:23:20;8.20;1.00
13610;DHT22;6876;50.788;4.940;2023-03-11T15:26:17;8.10;1.00
13610;DHT22;6876;50.788;4.940;2023-03-11T15:29:14;8.20;1.00
13610;DHT22;6876;50.788;4.940;2023-03-11T15:32:23;8.20;1.00
13610;DHT22;6876;50.788;4.940;2023-03-11T15:35:14;8.10;1.00
13610;DHT22;6876;50.788;4.940;2023-03-11T15:38:17;8.00;1.00
13610;DHT22;6876;50.788;4.940;2023-03-11T15:41:09;7.90;1.00
13610;DHT22;6876;50.788;4.940;2023-03-11T15:43:56;7.90;1.00
13610;DHT22;6876;50.788;4.940;2023-03-11T15:46:48;7.90;1.00
13610;DHT22;6876;50.788;4.940;2023-03-11T15:49:35;7.90;1.00
13610;DHT22;6876;50.788;4.940;2023-03-11T15:52:23;7.80;1.00
13610;DHT22;6876;50.788;4.940;2023-03-11T15:55:10;7.80;1.00
13610;DHT22;6876;50.788;4.940;2023-03-11T15:58:02;7.90;1.00
13610;DHT22;6876;50.788;4.940;2023-03-11T16:00:53;8.00;1.00
13610;DHT22;6876;50.788;4.940;2023-03-11T16:03:42;7.90;1.00
13610;DHT22;6876;50.788;4.940;2023-03-11T16:06:30;7.80;1.00
13610;DHT22;6876;50.788;4.940;2023-03-11T16:09:17;7.70;1.00
13610;DHT22;6876;50.788;4.940;2023-03-11T16:12:12;7.60;1.00
13610;DHT22;6876;50.788;4.940;2023-03-11T16:15:00;7.50;1.00
13610;DHT22;6876;50.788;4.940;2023-03-11T16:17:47;7.40;1.00
13610;DHT22;6876;50.788;4.940;2023-03-11T16:20:39;7.40;1.00
13610;DHT22;6876;50.788;4.940;2023-03-11T16:23:30;7.40;1.00
13610;DHT22;6876;50.788;4.940;2023-03-11T16:26:21;7.40;1.00
13610;DHT22;6876;50.788;4.940;2023-03-11T16:29:09;7.20;1.00
13610;DHT22;6876;50.788;4.940;2023-03-11T16:31:56;7.20;1.00
13610;DHT22;6876;50.788;4.940;2023-03-11T16:34:44;7.10;1.00
13610;DHT22;6876;50.788;4.940;2023-03-11T16:37:32;7.10;8.00
13610;DHT22;6876;50.788;4.940;2023-03-11T16:40:21;7.10;27.20
13610;DHT22;6876;50.788;4.940;2023-03-11T16:43:11;7.10;28.80
13610;DHT22;6876;50.788;4.940;2023-03-11T16:46:00;7.10;26.90
13610;DHT22;6876;50.788;4.940;2023-03-11T16:48:47;7.10;38.60
13610;DHT22;6876;50.788;4.940;2023-03-11T16:51:34;7.10;43.60
13610;DHT22;6876;50.788;4.940;2023-03-11T16:54:23;7.20;36.10
13610;DHT22;6876;50.788;4.940;2023-03-11T16:57:10;7.10;36.60
13610;DHT22;6876;50.788;4.940;2023-03-11T16:59:58;7.00;39.50
13610;DHT22;6876;50.788;4.940;2023-03-11T17:02:45;7.00;43.50
13610;DHT22;6876;50.788;4.940;2023-03-11T17:05:33;6.80;45.00
13610;DHT22;6876;50.788;4.940;2023-03-11T17:08:20;6.60;55.40
13610;DHT22;6876;50.788;4.940;2023-03-11T17:11:15;6.50;43.30
13610;DHT22;6876;50.788;4.940;2023-03-11T17:14:02;6.40;64.50
13610;DHT22;6876;50.788;4.940;2023-03-11T17:16:50;6.40;66.70
13610;DHT22;6876;50.788;4.940;2023-03-11T17:19:37;6.40;67.00
13610;DHT22;6876;50.788;4.940;2023-03-11T17:22:24;6.40;72.50
13610;DHT22;6876;50.788;4.940;2023-03-11T17:25:12;6.40;79.50
13610;DHT22;6876;50.788;4.940;2023-03-11T17:28:00;6.30;80.50
13610;DHT22;6876;50.788;4.940;2023-03-11T17:30:48;6.30;80.70
13610;DHT22;6876;50.788;4.940;2023-03-11T17:33:35;6.20;88.90
13610;DHT22;6876;50.788;4.940;2023-03-11T17:36:22;6.10;91.60
13610;DHT22;6876;50.788;4.940;2023-03-11T17:39:10;6.10;94.60
13610;DHT22;6876;50.788;4.940;2023-03-11T17:41:57;6.00;96.40
13610;DHT22;6876;50.788;4.940;2023-03-11T17:44:46;6.00;99.90
13610;DHT22;6876;50.788;4.940;2023-03-11T17:47:33;6.00;99.90
13610;DHT22;6876;50.788;4.940;2023-03-11T17:50:21;6.00;99.90
13610;DHT22;6876;50.788;4.940;2023-03-11T17:53:08;6.00;99.90
13610;DHT22;6876;50.788;4.940;2023-03-11T17:55:57;5.90;99.90
13610;DHT22;6876;50.788;4.940;2023-03-11T17:58:45;5.90;99.90
13610;DHT22;6876;50.788;4.940;2023-03-11T18:01:34;5.80;99.90
13610;DHT22;6876;50.788;4.940;2023-03-11T18:04:21;5.80;99.90
13610;DHT22;6876;50.788;4.940;2023-03-11T18:07:08;5.80;99.90
13610;DHT22;6876;50.788;4.940;2023-03-11T18:09:56;5.70;99.90
13610;DHT22;6876;50.788;4.940;2023-03-11T18:12:44;5.60;99.90
13610;DHT22;6876;50.788;4.940;2023-03-11T18:15:31;5.60;99.90
13610;DHT22;6876;50.788;4.940;2023-03-11T18:18:20;5.50;99.90
13610;DHT22;6876;50.788;4.940;2023-03-11T18:21:09;5.50;99.90
13610;DHT22;6876;50.788;4.940;2023-03-11T18:23:59;5.50;99.90
13610;DHT22;6876;50.788;4.940;2023-03-11T18:26:46;5.40;99.90
13610;DHT22;6876;50.788;4.940;2023-03-11T18:29:34;5.30;99.90
13610;DHT22;6876;50.788;4.940;2023-03-11T18:32:21;5.40;99.90
13610;DHT22;6876;50.788;4.940;2023-03-11T18:35:10;5.30;99.90
13610;DHT22;6876;50.788;4.940;2023-03-11T18:37:59;5.30;99.90
13610;DHT22;6876;50.788;4.940;2023-03-11T18:40:46;5.30;99.90
13610;DHT22;6876;50.788;4.940;2023-03-11T18:43:33;5.30;99.90
13610;DHT22;6876;50.788;4.940;2023-03-11T18:46:21;5.30;99.90
13610;DHT22;6876;50.788;4.940;2023-03-11T18:49:10;5.30;99.90
13610;DHT22;6876;50.788;4.940;2023-03-11T18:51:59;5.20;99.90
13610;DHT22;6876;50.788;4.940;2023-03-11T18:54:47;5.20;99.90
13610;DHT22;6876;50.788;4.940;2023-03-11T18:57:34;5.10;99.90
13610;DHT22;6876;50.788;4.940;2023-03-11T19:00:22;5.10;99.90
13610;DHT22;6876;50.788;4.940;2023-03-11T19:03:10;5.00;99.90
13610;DHT22;6876;50.788;4.940;2023-03-11T19:05:58;4.90;99.90
13610;DHT22;6876;50.788;4.940;2023-03-11T19:08:47;4.80;99.90
13610;DHT22;6876;50.788;4.940;2023-03-11T19:11:34;4.80;99.90
13610;DHT22;6876;50.788;4.940;2023-03-11T19:14:22;4.60;99.90
13610;DHT22;6876;50.788;4.940;2023-03-11T19:17:10;4.60;99.90
13610;DHT22;6876;50.788;4.940;2023-03-11T19:19:58;4.60;99.90
13610;DHT22;6876;50.788;4.940;2023-03-11T19:22:46;4.60;99.90
13610;DHT22;6876;50.788;4.940;2023-03-11T19:25:34;4.40;99.90
13610;DHT22;6876;50.788;4.940;2023-03-11T19:28:22;4.40;99.90
13610;DHT22;6876;50.788;4.940;2023-03-11T19:31:09;4.40;99.90
13610;DHT22;6876;50.788;4.940;2023-03-11T19:33:57;4.40;99.90
13610;DHT22;6876;50.788;4.940;2023-03-11T19:36:45;4.40;99.90
13610;DHT22;6876;50.788;4.940;2023-03-11T19:39:33;4.40;99.90
13610;DHT22;6876;50.788;4.940;2023-03-11T19:42:21;4.30;99.90
13610;DHT22;6876;50.788;4.940;2023-03-11T19:45:10;4.20;99.90
13610;DHT22;6876;50.788;4.940;2023-03-11T19:47:57;4.20;99.90
13610;DHT22;6876;50.788;4.940;2023-03-11T19:50:46;4.20;99.90
13610;DHT22;6876;50.788;4.940;2023-03-11T19:53:35;4.20;99.90
13610;DHT22;6876;50.788;4.940;2023-03-11T19:56:22;4.20;99.90
13610;DHT22;6876;50.788;4.940;2023-03-11T19:59:13;4.20;99.90
13610;DHT22;6876;50.788;4.940;2023-03-11T20:02:01;4.10;99.90
13610;DHT22;6876;50.788;4.940;2023-03-11T20:04:49;4.00;99.90
13610;DHT22;6876;50.788;4.940;2023-03-11T20:07:36;4.00;99.90
13610;DHT22;6876;50.788;4.940;2023-03-11T20:10:23;4.00;99.90
13610;DHT22;6876;50.788;4.940;2023-03-11T20:13:11;4.00;99.90
13610;DHT22;6876;50.788;4.940;2023-03-11T20:16:05;4.00;99.90
13610;DHT22;6876;50.788;4.940;2023-03-11T20:18:53;4.20;1.00
13610;DHT22;6876;50.788;4.940;2023-03-11T20:21:40;4.30;99.90
13610;DHT22;6876;50.788;4.940;2023-03-11T20:24:28;4.30;99.90
13610;DHT22;6876;50.788;4.940;2023-03-11T20:27:15;4.30;1.00
13610;DHT22;6876;50.788;4.940;2023-03-11T20:30:03;4.30;99.90
13610;DHT22;6876;50.788;4.940;2023-03-11T20:32:52;4.20;99.90
13610;DHT22;6876;50.788;4.940;2023-03-11T20:35:39;4.30;99.90